Gurdon, AR

3:44 PM CDT on August 23, 2014 (GMT -0500)
Arkadelphia | Change Station
CLOSE
Current Station
Airport
Location: Arkadelphia,
Elevation: 184 ft
Nearby Weather Stations
Active Advisory: Special Statement

Elev 184 ft 34.10 °N, 93.07 °W | Updated 638 days ago

Clear
Clear
91 °F
Feels Like 97 °F
N
5
Wind Variable Wind from SSW
Gusts 6 mph

Today
High -- | Low -- °F
--% Chance of Precip.
Yesterday
High -- | Low -- °F
Precip. -- in
6:40 AM 7:49 PM
Waning Crescent, 3% visible
Pressure 30.35 in
Visibility 10.0 miles
Clouds Overcast 3100 ft
Heat Index 97 °F
Dew Point 72 °F
Humidity 52%
Rainfall 0.32 in
Snow Depth Not available.
UV 0 out of 12
Pollen 9.80 out of 12
Air Quality Not available.
Flu Activity Not available.
METAR KM89 231356Z AUTO 03007KT 10SM -RA OVC031 14/12 A3030 RMK AO2 T01380116 OVC V BKN P0002 SLP275

More Conditions Fewer Conditions

Pressure 30.35 in
Visibility 10.0 miles
Clouds Overcast 3100 ft
Heat Index 97 °F
Dew Point 72 °F
Humidity 52%
Rainfall 0.32 in
Snow Depth Not available.
UV 0 out of 12
Pollen 9.80 out of 12
Air Quality Not available.
Flu Activity Not available.
METAR KM89 231356Z AUTO 03007KT 10SM -RA OVC031 14/12 A3030 RMK AO2 T01380116 OVC V BKN P0002 SLP275

More Conditions Fewer Conditions

10-Day Weather Forecast

Almanac

Astronomy

Aug. 23, 2014 Rise Set
Actual Time 6:40 AM CDT 7:49 PM CDT
Civil Twilight 6:14 AM CDT 8:15 PM CDT
Nautical Twilight 5:43 AM CDT 8:46 PM CDT
Astronomical Twilight 5:11 AM CDT 9:18 PM CDT
Moon 4:58 AM CDT 6:34 PM CDT
Length of Visible Light 14h 01m
Length of Day
13h 09m
Tomorrow will be 1m 58s shorter.
Waning Crescent, 3% of the Moon is Illuminated
Today
Waning Crescent
Aug 25
New
Sep 2
First Quarter
Sep 8
Full
Sep 15
Last Quarter

Today's Extremes

State Highs State Lows

Community

WunderPhotos

Upload Photos

1,746,622 photos uploaded!

WunderBlogs® & News

Nearby

Snow Depth

Station Depth Elevation
No new snow has been reported.

Earthquake Activity

City Distance Mag. Time & Date
No recent earthquake activity has been reported nearby.
Minimum magnitude displayed is 2.5.

Coastal Water Temperatures

Place Temperature
No Stations Reporting

Nearby Weather Stations